Time;durP1;ratioP1;P1;durP2;ratioP2;P2;SDS_P1;SDS_P2;PMS_P1;PMS_P2;Temp;Humidity;BMP_temperature;BMP_pressure;BME280_temperature;BME280_humidity;BME280_pressure;Samples;Min_cycle;Max_cycle;Signal;HPM_P1;HPM_P2
2022/09/19 00:02:13;;;;;;;7.03;1.90;;;;;;;;;;5069737;28;20029;-77
2022/09/19 00:04:38;;;;;;;2.88;1.85;;;;;;;;;;5051542;28;20078;-76
2022/09/19 00:07:03;;;;;;;3.23;2.23;;;;;;;;;;5053038;28;20070;-76
2022/09/19 00:09:30;;;;;;;3.20;1.97;;;;;;;;;;5050287;28;20288;-76
2022/09/19 00:11:56;;;;;;;6.50;1.65;;;;;;;;;;5040959;28;20281;-75
2022/09/19 00:14:23;;;;;;;5.93;1.88;;;;;;;;;;5054347;28;20039;-77
2022/09/19 00:16:48;;;;;;;3.90;1.55;;;;;;;;;;5043324;28;20017;-76
2022/09/19 00:19:19;;;;;;;5.57;1.80;;;;;;;9.46;nan;100414.19;5053209;28;20031;-75
2022/09/19 00:21:45;;;;;;;2.45;1.58;;;;;;;;;;5058507;28;20033;-75
2022/09/19 00:26:56;;;;;;;6.15;1.63;;;;;;;;;;5051603;28;20063;-76
2022/09/19 00:29:22;;;;;;;1.98;1.70;;;;;;;;;;5030988;28;20443;-77
2022/09/19 00:31:47;;;;;;;2.70;1.48;;;;;;;;;;5051599;28;20562;-77
2022/09/19 00:34:14;;;;;;;2.15;1.48;;;;;;;;;;5048027;28;20429;-76
2022/09/19 00:36:40;;;;;;;2.30;1.80;;;;;;;;;;5048393;28;20025;-76
2022/09/19 00:39:06;;;;;;;4.35;1.67;;;;;;;;;;5051783;28;20078;-77
2022/09/19 00:41:32;;;;;;;2.78;1.65;;;;;;;;;;5027326;28;20029;-77
2022/09/19 00:43:59;;;;;;;3.08;1.60;;;;;;;;;;5053648;28;20441;-77
2022/09/19 00:46:25;;;;;;;2.60;1.10;;;;;;;;;;5034644;28;20033;-76
2022/09/19 00:48:54;;;;;;;2.15;1.30;;;;;;;;;;5026005;28;20502;-76
2022/09/19 00:51:31;;;;;;;2.10;1.50;;;;;;;;;;5050999;28;20025;-76
2022/09/19 00:53:58;;;;;;;4.53;1.38;;;;;;;;;;5053239;28;20068;-76
2022/09/19 00:56:23;;;;;;;1.75;1.40;;;;;;;;;;5052425;28;20041;-76
2022/09/19 00:58:50;;;;;;;4.95;1.52;;;;;;;;;;5042403;28;20032;-77
2022/09/19 01:01:15;;;;;;;3.65;1.40;;;;;;;9.52;nan;100376.50;5033956;28;20033;-77
2022/09/19 01:03:41;;;;;;;1.63;1.20;;;;;;;;;;5049460;28;20047;-76
2022/09/19 01:06:25;;;;;;;3.30;1.17;;;;;;;;;;5048265;28;20497;-77
2022/09/19 01:09:10;;;;;;;1.30;1.20;;;;;;;;;;5048789;28;20028;-75
2022/09/19 01:11:50;;;;;;;2.20;1.40;;;;;;;;;;5047794;28;20021;-77
2022/09/19 01:14:37;;;;;;;5.20;1.50;;;;;;;;;;5045276;28;20056;-76
2022/09/19 01:17:26;;;;;;;1.70;1.40;;;;;;;9.55;nan;100365.56;5045785;28;20091;-75
2022/09/19 01:20:10;;;;;;;1.87;1.30;;;;;;;;;;5050966;28;20057;-78
2022/09/19 01:22:52;;;;;;;3.90;1.23;;;;;;;;;;5029545;28;20862;-77
2022/09/19 01:25:18;;;;;;;3.45;1.38;;;;;;;;;;5043708;28;20029;-77
2022/09/19 01:28:06;;;;;;;4.20;1.23;;;;;;;;;;5048382;28;20121;-76
2022/09/19 01:30:32;;;;;;;5.70;1.37;;;;;;;;;;5045568;28;20021;-76
2022/09/19 01:33:17;;;;;;;2.33;1.33;;;;;;;;;;5033848;28;20029;-78
2022/09/19 01:35:43;;;;;;;4.05;1.40;;;;;;;;;;5056801;28;20028;-77
2022/09/19 01:38:23;;;;;;;1.95;1.15;;;;;;;;;;5047749;28;20051;-76
2022/09/19 01:40:48;;;;;;;;;;;;;;;;;;5052681;28;20032;-75
2022/09/19 01:43:14;;;;;;;1.58;1.20;;;;;;;;;;5050371;28;19916;-76
2022/09/19 01:45:40;;;;;;;3.45;1.10;;;;;;;;;;5046215;28;20025;-77
2022/09/19 01:48:24;;;;;;;2.92;1.20;;;;;;;;;;5047793;28;20078;-76
2022/09/19 01:51:01;;;;;;;1.77;1.17;;;;;;;;;;5028428;28;20035;-76
2022/09/19 01:53:46;;;;;;;1.50;0.90;;;;;;;;;;5052881;28;20031;-76
2022/09/19 01:56:19;;;;;;;2.15;1.30;;;;;;;;;;5050222;28;20220;-76
2022/09/19 01:58:55;;;;;;;1.10;1.00;;;;;;;;;;5025895;28;20031;-77
2022/09/19 02:01:32;;;;;;;1.60;1.05;;;;;;;;;;5048610;28;20064;-77
2022/09/19 02:04:03;;;;;;;1.40;1.15;;;;;;;;;;5049644;28;20036;-76
2022/09/19 02:06:35;;;;;;;1.48;0.88;;;;;;;;;;5047652;28;20021;-77
2022/09/19 02:09:08;;;;;;;2.00;1.10;;;;;;;;;;5045132;28;20036;-77
2022/09/19 02:11:33;;;;;;;1.83;1.00;;;;;;;;;;5042664;28;20490;-76
2022/09/19 02:14:10;;;;;;;3.78;1.70;;;;;;;;;;5034908;28;20043;-76
2022/09/19 02:16:46;;;;;;;1.52;1.00;;;;;;;;;;5058623;28;20025;-76
2022/09/19 02:19:18;;;;;;;1.83;1.17;;;;;;;;;;5033302;28;20554;-75
2022/09/19 02:21:47;;;;;;;1.17;1.00;;;;;;;;;;5047799;28;20454;-77
2022/09/19 02:24:16;;;;;;;4.97;1.08;;;;;;;;;;5050416;28;20029;-75
2022/09/19 02:26:43;;;;;;;5.45;1.42;;;;;;;;;;5043549;28;20521;-77
2022/09/19 02:29:12;;;;;;;3.92;1.30;;;;;;;;;;5046866;28;20447;-76
2022/09/19 02:31:38;;;;;;;2.43;1.40;;;;;;;;;;5046473;28;20379;-74
2022/09/19 02:34:05;;;;;;;2.33;1.30;;;;;;;;;;5032124;28;20029;-74
2022/09/19 02:36:52;;;;;;;4.13;1.50;;;;;;;;;;5045767;28;20416;-76
2022/09/19 02:39:29;;;;;;;2.92;1.40;;;;;;;;;;5021521;28;20672;-77
2022/09/19 02:42:04;;;;;;;2.85;1.70;;;;;;;;;;5033525;28;20037;-76
2022/09/19 02:44:36;;;;;;;2.28;1.50;;;;;;;;;;5029150;28;20479;-76
2022/09/19 02:47:11;;;;;;;2.80;1.40;;;;;;;;;;5051244;28;20032;-77
2022/09/19 02:49:43;;;;;;;3.97;1.73;;;;;;;;;;5047303;28;20021;-76
2022/09/19 02:52:17;;;;;;;7.20;2.00;;;;;;;;;;5044491;28;20036;-77
2022/09/19 02:54:45;;;;;;;4.35;1.55;;;;;;;;;;5055016;28;20029;-77
2022/09/19 02:57:13;;;;;;;4.18;1.50;;;;;;;;;;5041275;28;20025;-77
2022/09/19 02:59:40;;;;;;;3.53;1.30;;;;;;;;;;5043929;28;20048;-76
2022/09/19 03:02:17;;;;;;;4.22;1.48;;;;;;;;;;5045235;28;20037;-76
2022/09/19 03:04:45;;;;;;;3.42;1.40;;;;;;;;;;5043101;28;20051;-76
2022/09/19 03:07:13;;;;;;;5.07;1.50;;;;;;;;;;5025832;28;20561;-76
2022/09/19 03:09:54;;;;;;;2.65;1.50;;;;;;;;;;5043755;28;20040;-75
2022/09/19 03:12:29;;;;;;;1.80;1.20;;;;;;;;;;5065633;28;20040;-76
2022/09/19 03:14:58;;;;;;;4.40;1.40;;;;;;;;;;5062548;28;20031;-76
2022/09/19 03:17:27;;;;;;;2.33;1.48;;;;;;;;;;5045241;28;20021;-76
2022/09/19 03:19:52;;;;;;;2.33;1.50;;;;;;;;;;5053936;28;20040;-75
2022/09/19 03:22:18;;;;;;;2.38;1.65;;;;;;;;;;5055142;28;20494;-76
2022/09/19 03:24:43;;;;;;;3.47;1.85;;;;;;;;;;5049768;28;20027;-77
2022/09/19 03:27:08;;;;;;;2.10;1.60;;;;;;;;;;5053886;28;20463;-77
2022/09/19 03:29:34;;;;;;;3.35;1.60;;;;;;;;;;5051601;28;20275;-77
2022/09/19 03:31:59;;;;;;;3.28;1.50;;;;;;;;;;5048756;28;20024;-75
2022/09/19 03:34:25;;;;;;;3.57;1.80;;;;;;;;;;5043208;28;20029;-78
2022/09/19 03:36:50;;;;;;;5.88;1.92;;;;;;;;;;5037628;28;20278;-77
2022/09/19 03:39:15;;;;;;;3.30;2.53;;;;;;;;;;5045131;28;20459;-77
2022/09/19 03:41:41;;;;;;;3.53;1.98;;;;;;;;;;5044996;28;20534;-74
2022/09/19 03:44:07;;;;;;;4.38;1.95;;;;;;;;;;5028242;28;20025;-76
2022/09/19 03:46:32;;;;;;;3.28;1.80;;;;;;;;;;5045400;28;20027;-76
2022/09/19 03:48:58;;;;;;;4.00;1.95;;;;;;;;;;5047715;28;20028;-77
2022/09/19 03:51:24;;;;;;;4.70;2.10;;;;;;;;;;5031032;28;20336;-77
2022/09/19 03:53:49;;;;;;;4.93;2.30;;;;;;;;;;5030076;28;20031;-78
2022/09/19 03:56:16;;;;;;;5.13;2.45;;;;;;;;;;5043234;28;20064;-76
2022/09/19 03:58:42;;;;;;;4.35;2.53;;;;;;;;;;5028195;28;20368;-76
2022/09/19 04:01:07;;;;;;;5.53;2.00;;;;;;;;;;5042475;28;20051;-76
2022/09/19 04:03:36;;;;;;;5.20;2.00;;;;;;;;;;5048383;28;20078;-76
2022/09/19 04:06:01;;;;;;;4.17;2.47;;;;;;;;;;5029406;28;20033;-75
2022/09/19 04:08:27;;;;;;;6.13;2.35;;;;;;;;;;5026042;28;20391;-78
2022/09/19 04:10:52;;;;;;;4.70;2.30;;;;;;;;;;5030562;28;20047;-79
2022/09/19 04:13:20;;;;;;;9.23;2.50;;;;;;;;;;5046058;28;20285;-77
2022/09/19 04:15:46;;;;;;;5.25;2.70;;;;;;;;;;5033204;28;20032;-78
2022/09/19 04:18:11;;;;;;;6.53;2.08;;;;;;;;;;5044713;28;20021;-77
2022/09/19 04:20:38;;;;;;;7.55;2.80;;;;;;;;;;5028192;28;20068;-78
2022/09/19 04:23:03;;;;;;;8.10;3.60;;;;;;;;;;5029972;28;20043;-76
2022/09/19 04:25:32;;;;;;;8.90;3.53;;;;;;;;;;5042618;28;20016;-75
2022/09/19 04:28:01;;;;;;;12.70;3.22;;;;;;;;;;5043823;28;20674;-75
2022/09/19 04:30:27;;;;;;;9.73;5.30;;;;;;;;;;5039057;28;20029;-77
2022/09/19 04:32:52;;;;;;;11.53;5.27;;;;;;;;;;5046096;28;20021;-76
2022/09/19 04:35:18;;;;;;;9.32;3.92;;;;;;;;;;5034723;28;20069;-75
2022/09/19 04:37:44;;;;;;;7.30;4.05;;;;;;;;;;5050335;28;20025;-75
2022/09/19 04:40:09;;;;;;;8.13;3.90;;;;;;;;;;5030008;28;20043;-75
2022/09/19 04:42:35;;;;;;;7.97;2.63;;;;;;;;;;5046169;28;20033;-75
2022/09/19 04:45:01;;;;;;;3.97;2.65;;;;;;;;;;5030428;28;20052;-71
2022/09/19 04:47:28;;;;;;;5.53;2.38;;;;;;;;;;5045046;28;20051;-71
2022/09/19 04:49:56;;;;;;;3.97;2.10;;;;;;;;;;5048224;28;20038;-76
2022/09/19 04:52:24;;;;;;;3.42;2.15;;;;;;;;;;5029525;28;20048;-75
2022/09/19 04:54:49;;;;;;;5.28;1.88;;;;;;;;;;5023241;28;20098;-75
2022/09/19 04:57:15;;;;;;;5.03;2.30;;;;;;;;;;5032251;28;20514;-76
2022/09/19 04:59:41;;;;;;;3.83;2.42;;;;;;;;;;5046651;28;20021;-75
2022/09/19 05:02:08;;;;;;;3.08;2.13;;;;;;;;;;5041288;28;20510;-73
2022/09/19 05:04:33;;;;;;;4.43;2.40;;;;;;;;;;5051247;28;20040;-74
2022/09/19 05:06:59;;;;;;;5.55;2.05;;;;;;;;;;5048496;28;20029;-77
2022/09/19 05:09:25;;;;;;;5.72;2.65;;;;;;;;;;5033855;28;20406;-74
2022/09/19 05:11:50;;;;;;;5.18;2.90;;;;;;;;;;5033064;28;20024;-76
2022/09/19 05:14:17;;;;;;;3.75;2.22;;;;;;;;;;5049560;28;20025;-74
2022/09/19 05:16:42;;;;;;;3.72;2.22;;;;;;;;;;5033032;28;20088;-71
2022/09/19 05:19:08;;;;;;;6.35;2.83;;;;;;;;;;5027673;28;20043;-69
2022/09/19 05:21:33;;;;;;;5.13;2.42;;;;;;;;;;5048127;28;20053;-70
2022/09/19 05:24:00;;;;;;;3.80;2.40;;;;;;;;;;5041532;28;20114;-71
2022/09/19 05:26:25;;;;;;;5.13;2.58;;;;;;;;;;5045788;28;20074;-71
2022/09/19 05:28:50;;;;;;;5.50;2.40;;;;;;;;;;5041951;28;20510;-71
2022/09/19 05:31:18;;;;;;;4.32;2.65;;;;;;;;;;5041556;28;20055;-69
2022/09/19 05:33:43;;;;;;;2.92;1.98;;;;;;;;;;5042611;28;20025;-70
2022/09/19 05:36:08;;;;;;;2.55;1.70;;;;;;;;;;5029255;28;20450;-71
2022/09/19 05:38:34;;;;;;;3.90;2.00;;;;;;;;;;5041365;28;20022;-75
2022/09/19 05:41:00;;;;;;;2.03;1.83;;;;;;;;;;5045663;28;20107;-74
2022/09/19 05:43:26;;;;;;;2.35;1.58;;;;;;;;;;5033019;28;20115;-74
2022/09/19 05:45:52;;;;;;;3.97;1.80;;;;;;;;;;5025249;28;20105;-76
2022/09/19 05:48:17;;;;;;;2.35;1.77;;;;;;;;;;5042897;28;20074;-74
2022/09/19 05:50:43;;;;;;;3.20;1.98;;;;;;;;;;5046945;28;20718;-75
2022/09/19 05:55:56;;;;;;;3.60;2.47;;;;;;;;;;5044903;28;20104;-70
2022/09/19 05:58:21;;;;;;;3.22;1.55;;;;;;;;;;5030570;28;20032;-71
2022/09/19 06:00:46;;;;;;;2.70;1.50;;;;;;;;;;5031868;28;20455;-71
2022/09/19 06:03:20;;;;;;;3.67;1.40;;;;;;;;;;5046023;28;20036;-71
2022/09/19 06:05:48;;;;;;;3.20;1.50;;;;;;;;;;5027717;28;20306;-71
2022/09/19 06:08:14;;;;;;;1.07;0.97;;;;;;;;;;5043750;28;20029;-71
2022/09/19 06:10:41;;;;;;;1.90;1.13;;;;;;;;;;5044876;28;20539;-71
2022/09/19 06:13:06;;;;;;;7.53;1.70;;;;;;;;;;5031560;28;20442;-70
2022/09/19 06:15:33;;;;;;;1.15;1.05;;;;;;;;;;5041876;28;20029;-76
2022/09/19 06:17:58;;;;;;;4.07;1.30;;;;;;;;;;5048558;28;20907;-75
2022/09/19 06:20:23;;;;;;;2.90;1.10;;;;;;;;;;5044925;28;20131;-76
2022/09/19 06:22:51;;;;;;;3.72;1.30;;;;;;;;;;5026443;28;20467;-75
2022/09/19 06:25:16;;;;;;;1.20;1.08;;;;;;;;;;5055067;28;20037;-74
2022/09/19 06:27:44;;;;;;;2.03;1.00;;;;;;;;;;5064262;28;20025;-75
2022/09/19 06:30:10;;;;;;;1.15;0.90;;;;;;;;;;5060955;28;20033;-70
2022/09/19 06:32:37;;;;;;;1.75;0.80;;;;;;;;;;5064553;28;20083;-71
2022/09/19 06:35:02;;;;;;;1.23;0.88;;;;;;;;;;5043562;28;20037;-72
2022/09/19 06:37:27;;;;;;;0.80;0.70;;;;;;;;;;5037717;28;20108;-71
2022/09/19 06:39:52;;;;;;;2.07;1.07;;;;;;;;;;5054030;28;20028;-70
2022/09/19 06:42:18;;;;;;;3.27;0.70;;;;;;;;;;5053315;28;20041;-70
2022/09/19 06:44:43;;;;;;;1.55;0.82;;;;;;;;;;5053737;28;20415;-70
2022/09/19 06:47:08;;;;;;;1.80;0.80;;;;;;;;;;5039941;28;20520;-71
2022/09/19 06:49:34;;;;;;;0.80;0.80;;;;;;;;;;5045204;28;20269;-70
2022/09/19 06:52:00;;;;;;;1.65;1.02;;;;;;;;;;5043848;28;20309;-71
2022/09/19 06:54:26;;;;;;;4.05;1.13;;;;;;;;;;5041636;28;20102;-71
2022/09/19 06:56:51;;;;;;;2.10;1.10;;;;;;;;;;5047002;28;20032;-71
2022/09/19 06:59:17;;;;;;;2.30;1.13;;;;;;;;;;5026626;28;20018;-75
2022/09/19 07:01:42;;;;;;;1.20;1.08;;;;;;;;;;5044257;28;20368;-74
2022/09/19 07:04:08;;;;;;;2.53;1.15;;;;;;;;;;5027054;28;20520;-75
2022/09/19 07:06:36;;;;;;;1.33;1.10;;;;;;;;;;5046916;28;20474;-70
2022/09/19 07:09:02;;;;;;;1.98;1.08;;;;;;;;;;5031793;28;20115;-71
2022/09/19 07:11:27;;;;;;;1.40;1.00;;;;;;;;;;5042782;28;20817;-76
2022/09/19 07:13:53;;;;;;;2.15;1.30;;;;;;;;;;5042102;28;20029;-70
2022/09/19 07:16:18;;;;;;;2.63;1.10;;;;;;;;;;5023839;28;20368;-70
2022/09/19 07:18:43;;;;;;;2.80;1.10;;;;;;;;;;5045792;28;20502;-73
2022/09/19 07:21:08;;;;;;;1.07;0.87;;;;;;;;;;5045336;28;20290;-71
2022/09/19 07:23:34;;;;;;;4.80;1.27;;;;;;;;;;5041532;28;20360;-71
2022/09/19 07:26:00;;;;;;;3.13;1.48;;;;;;;;;;5040793;28;20324;-72
2022/09/19 07:28:26;;;;;;;5.07;2.88;;;;;;;;;;5040207;28;20055;-72
2022/09/19 07:30:52;;;;;;;2.80;1.60;;;;;;;;;;5031204;28;20026;-72
2022/09/19 07:33:22;;;;;;;7.28;1.73;;;;;;;;;;5040270;28;20039;-69
2022/09/19 07:35:47;;;;;;;2.00;1.23;;;;;;;;;;5039482;28;20025;-69
2022/09/19 07:38:14;;;;;;;1.77;1.30;;;;;;;;;;5039017;28;20460;-68
2022/09/19 07:40:39;;;;;;;1.88;1.20;;;;;;;;;;5027227;28;20032;-69
2022/09/19 07:43:05;;;;;;;2.28;1.45;;;;;;;;;;5042448;28;20025;-68
2022/09/19 07:45:34;;;;;;;1.80;1.20;;;;;;;;;;5041995;28;20086;-67
2022/09/19 07:47:59;;;;;;;3.05;1.15;;;;;;;;;;5028890;28;20032;-69
2022/09/19 07:50:25;;;;;;;3.22;1.27;;;;;;;10.45;nan;100350.09;5043099;28;20021;-70
2022/09/19 07:53:00;;;;;;;2.10;1.40;;;;;;;;;;5012359;28;20077;-69
2022/09/19 07:55:26;;;;;;;3.83;1.42;;;;;;;;;;5045909;28;20026;-70
2022/09/19 07:57:52;;;;;;;3.50;1.23;;;;;;;;;;5029022;28;20067;-69
2022/09/19 08:00:17;;;;;;;2.47;1.50;;;;;;;;;;5030773;28;20060;-70
2022/09/19 08:02:43;;;;;;;4.03;1.60;;;;;;;;;;5044854;28;20048;-69
2022/09/19 08:05:08;;;;;;;2.40;1.70;;;;;;;;;;5045929;28;20024;-67
2022/09/19 08:07:33;;;;;;;4.90;1.77;;;;;;;;;;5038706;28;20017;-68
2022/09/19 08:10:01;;;;;;;13.67;3.83;;;;;;;;;;5043602;28;20567;-68
2022/09/19 08:12:26;;;;;;;3.28;1.67;;;;;;;;;;5033960;28;20029;-69
2022/09/19 08:14:53;;;;;;;1.63;1.20;;;;;;;;;;5041460;28;20083;-68
2022/09/19 08:17:19;;;;;;;2.63;1.50;;;;;;;;;;5032433;28;20033;-68
2022/09/19 08:19:45;;;;;;;6.22;1.52;;;;;;;;;;5054673;28;20052;-69
2022/09/19 08:22:11;;;;;;;12.23;5.20;;;;;;;;;;5045807;28;20040;-68
2022/09/19 08:24:36;;;;;;;5.15;1.98;;;;;;;;;;5051716;28;20028;-71
2022/09/19 08:27:01;;;;;;;2.55;1.55;;;;;;;;;;5035963;28;20155;-69
2022/09/19 08:29:27;;;;;;;2.07;1.40;;;;;;;;;;5052048;28;20033;-70
2022/09/19 08:31:52;;;;;;;1.70;1.25;;;;;;;;;;5044488;28;20032;-73
2022/09/19 08:34:17;;;;;;;1.92;1.23;;;;;;;;;;5045473;28;20352;-71
2022/09/19 08:36:43;;;;;;;2.67;1.27;;;;;;;;;;5057608;28;20025;-72
2022/09/19 08:39:08;;;;;;;3.53;2.00;;;;;;;;;;5043594;28;20443;-72
2022/09/19 08:41:33;;;;;;;2.30;2.00;;;;;;;;;;5048576;28;20324;-73
2022/09/19 08:44:02;;;;;;;4.28;2.78;;;;;;;;;;5045959;28;20637;-72
2022/09/19 08:46:35;;;;;;;5.65;3.13;;;;;;;;;;5051031;28;20025;-73
2022/09/19 08:49:11;;;;;;;7.30;4.80;;;;;;;11.52;nan;100276.09;5042722;28;20510;-73
2022/09/19 08:51:46;;;;;;;7.88;5.35;;;;;;;;;;5048664;28;20127;-74
2022/09/19 08:54:14;;;;;;;11.35;8.18;;;;;;;;;;5044379;28;20025;-74
2022/09/19 08:56:42;;;;;;;12.32;7.70;;;;;;;;;;5047587;28;20027;-74
2022/09/19 08:59:12;;;;;;;11.57;6.30;;;;;;;;;;5029488;28;20039;-75
2022/09/19 09:01:38;;;;;;;7.40;5.10;;;;;;;;;;5048152;28;20020;-74
2022/09/19 09:04:07;;;;;;;11.98;7.10;;;;;;;;;;5051180;28;20083;-73
2022/09/19 09:06:38;;;;;;;11.57;6.78;;;;;;;;;;5044837;28;21641;-74
2022/09/19 09:09:11;;;;;;;5.15;4.18;;;;;;;;;;5040549;28;20376;-75
2022/09/19 09:11:39;;;;;;;6.18;2.90;;;;;;;;;;5045258;28;20104;-73
2022/09/19 09:14:23;;;;;;;5.45;3.40;;;;;;;;;;5041561;28;20061;-74
2022/09/19 09:16:54;;;;;;;6.65;2.97;;;;;;;;;;5030842;28;20071;-73
2022/09/19 09:19:42;;;;;;;3.90;2.58;;;;;;;;;;5048673;28;20029;-74
2022/09/19 09:22:07;;;;;;;4.10;2.80;;;;;;;;;;5041190;28;20479;-72
2022/09/19 09:24:41;;;;;;;5.93;3.00;;;;;;;;;;5048610;28;20089;-72
2022/09/19 09:27:27;;;;;;;6.63;3.08;;;;;;;;;;5049671;28;20138;-72
2022/09/19 09:29:58;;;;;;;7.22;4.03;;;;;;;;;;5045525;28;21257;-72
2022/09/19 09:32:32;;;;;;;6.05;4.30;;;;;;;;;;5050867;28;20061;-73
2022/09/19 09:35:07;;;;;;;7.57;3.42;;;;;;;;;;5044822;28;20070;-72
2022/09/19 09:37:48;;;;;;;4.97;2.50;;;;;;;;;;5044784;28;20460;-74
2022/09/19 09:43:09;;;;;;;4.30;2.40;;;;;;;;;;5040188;28;20036;-71
2022/09/19 09:45:36;;;;;;;3.47;2.17;;;;;;;;;;5058724;28;20451;-71
2022/09/19 09:48:01;;;;;;;3.08;2.00;;;;;;;;;;5032634;28;20053;-71
2022/09/19 09:50:48;;;;;;;3.00;2.13;;;;;;;;;;5064069;28;20603;-72
2022/09/19 09:53:13;;;;;;;5.18;2.55;;;;;;;;;;5062675;28;20040;-71
2022/09/19 09:58:41;;;;;;;5.55;3.42;;;;;;;;;;5042555;28;20106;-72
2022/09/19 10:04:14;;;;;;;7.68;2.72;;;;;;;;;;5040226;28;20068;-74
2022/09/19 10:06:52;;;;;;;7.40;2.67;;;;;;;;;;5045692;28;20391;-75
2022/09/19 10:09:17;;;;;;;4.18;2.70;;;;;;;;;;5039885;28;20029;-73
2022/09/19 10:11:52;;;;;;;4.53;2.33;;;;;;;;;;5034953;28;20033;-69
2022/09/19 10:14:19;;;;;;;3.70;2.30;;;;;;;;;;5042618;28;20434;-74
2022/09/19 10:16:47;;;;;;;5.57;2.40;;;;;;;;;;5045760;28;20029;-70
2022/09/19 10:19:35;;;;;;;2.55;2.10;;;;;;;;;;5044203;28;20048;-71
2022/09/19 10:22:00;;;;;;;3.90;2.15;;;;;;;;;;5045285;28;20495;-71
2022/09/19 10:24:45;;;;;;;2.65;1.65;;;;;;;;;;5032091;28;20040;-72
2022/09/19 10:27:15;;;;;;;3.95;1.63;;;;;;;;;;5049765;28;20067;-74
2022/09/19 10:29:51;;;;;;;2.65;1.55;;;;;;;;;;5044771;28;20108;-72
2022/09/19 10:32:19;;;;;;;3.42;2.05;;;;;;;;;;5031872;28;20112;-73
2022/09/19 10:34:45;;;;;;;3.33;1.73;;;;;;;;;;5042163;28;20126;-73
2022/09/19 10:37:14;;;;;;;2.85;1.80;;;;;;;;;;5046997;28;20527;-72
2022/09/19 10:39:39;;;;;;;;;;;;;;;;;;5039629;28;20025;-73
2022/09/19 10:42:18;;;;;;;2.97;1.80;;;;;;;;;;5044780;28;19939;-74
2022/09/19 10:44:52;;;;;;;2.80;2.00;;;;;;;;;;5039013;28;20021;-74
2022/09/19 10:47:17;;;;;;;4.35;1.88;;;;;;;;;;5032920;28;20021;-71
2022/09/19 10:49:46;;;;;;;3.10;1.80;;;;;;;;;;5047913;28;20082;-73
2022/09/19 10:52:20;;;;;;;3.13;1.20;;;;;;;;;;5048846;28;20632;-73
2022/09/19 10:54:45;;;;;;;3.30;1.55;;;;;;;;;;5046454;28;20033;-73
2022/09/19 10:57:26;;;;;;;1.38;1.08;;;;;;;;;;5047266;28;20028;-72
2022/09/19 10:59:53;;;;;;;3.53;1.25;;;;;;;;;;5047514;28;20056;-73
2022/09/19 11:02:21;;;;;;;2.08;0.90;;;;;;;;;;5028593;28;20028;-73
2022/09/19 11:04:59;;;;;;;3.88;1.17;;;;;;;;;;5045035;28;20379;-73
2022/09/19 11:07:30;;;;;;;1.67;0.90;;;;;;;;;;5031380;28;20074;-72
2022/09/19 11:09:59;;;;;;;2.70;1.13;;;;;;;;;;5030568;28;20039;-71
2022/09/19 11:12:25;;;;;;;1.27;1.17;;;;;;;;;;5027015;28;20596;-72
2022/09/19 11:14:50;;;;;;;1.00;0.90;;;;;;;;;;5047049;28;20081;-71
2022/09/19 11:17:22;;;;;;;5.87;1.50;;;;;;;;;;5030108;28;20043;-72
2022/09/19 11:19:49;;;;;;;4.68;1.75;;;;;;;;;;5046184;28;20297;-72
2022/09/19 11:22:32;;;;;;;4.07;1.52;;;;;;;;;;5041912;28;20131;-71
2022/09/19 11:24:58;;;;;;;2.28;1.40;;;;;;;;;;5057904;28;20379;-72
2022/09/19 11:27:26;;;;;;;3.80;1.50;;;;;;;;;;5045074;28;20028;-73
2022/09/19 11:29:58;;;;;;;3.85;1.50;;;;;;;;;;5045415;28;20052;-71
2022/09/19 11:32:44;;;;;;;2.92;1.42;;;;;;;;;;5040376;28;20033;-74
2022/09/19 11:35:09;;;;;;;1.98;1.10;;;;;;;;;;5050871;28;20748;-74
2022/09/19 11:37:41;;;;;;;1.57;1.30;;;;;;;;;;5045154;28;20145;-70
2022/09/19 11:40:07;;;;;;;1.77;1.40;;;;;;;;;;5030064;28;20037;-75
2022/09/19 11:42:32;;;;;;;2.42;1.40;;;;;;;;;;5045757;28;20032;-73
2022/09/19 11:45:12;;;;;;;3.97;1.67;;;;;;;;;;5031515;28;20446;-74
2022/09/19 11:47:37;;;;;;;2.70;1.48;;;;;;;;;;5032913;28;20639;-73
2022/09/19 11:50:21;;;;;;;3.50;1.30;;;;;;;;;;5036565;28;20033;-72
2022/09/19 11:52:56;;;;;;;2.45;1.30;;;;;;;;;;5048136;28;20531;-72
2022/09/19 11:55:43;;;;;;;4.30;1.33;;;;;;;;;;5048248;28;20026;-74
2022/09/19 11:58:12;;;;;;;2.17;1.40;;;;;;;;;;5037240;28;20100;-72
2022/09/19 12:00:53;;;;;;;5.30;1.60;;;;;;;;;;5050627;28;20025;-74
2022/09/19 12:03:18;;;;;;;2.17;1.00;;;;;;;;;;5049711;28;20120;-71
2022/09/19 12:05:50;;;;;;;1.30;0.90;;;;;;;;;;5038595;28;20096;-71
2022/09/19 12:08:27;;;;;;;2.92;1.10;;;;;;;;;;5048931;28;20490;-71
2022/09/19 12:11:08;;;;;;;1.95;1.20;;;;;;;;;;5033300;28;20040;-70
2022/09/19 12:13:54;;;;;;;3.85;1.30;;;;;;;;;;5050496;28;20040;-72
2022/09/19 12:16:41;;;;;;;4.10;1.40;;;;;;;;;;5057117;28;20124;-72
2022/09/19 12:19:16;;;;;;;3.60;1.60;;;;;;;;;;5032480;28;20033;-71
2022/09/19 12:21:47;;;;;;;2.55;1.42;;;;;;;;;;5048322;28;20056;-70
2022/09/19 12:27:11;;;;;;;32.38;6.15;;;;;;;;;;5050376;28;20087;-72
2022/09/19 12:29:37;;;;;;;14.50;3.70;;;;;;;;;;5053284;28;20028;-73
2022/09/19 12:32:14;;;;;;;8.43;2.70;;;;;;;;;;5047361;28;20028;-70
2022/09/19 12:34:59;;;;;;;3.97;1.92;;;;;;;;;;5052161;28;20018;-71
2022/09/19 12:37:36;;;;;;;14.25;3.95;;;;;;;;;;5048420;28;20496;-73
2022/09/19 12:40:03;;;;;;;3.92;2.00;;;;;;;;;;5053754;28;20052;-71
2022/09/19 12:42:45;;;;;;;2.45;1.38;;;;;;;;;;5050689;28;20035;-71
2022/09/19 12:45:28;;;;;;;5.40;1.60;;;;;;;;;;5050150;28;20121;-73
2022/09/19 12:48:04;;;;;;;9.13;2.60;;;;;;;12.73;nan;100423.75;5043312;28;20730;-72
2022/09/19 12:50:41;;;;;;;4.22;1.70;;;;;;;;;;5034642;28;20029;-70
2022/09/19 12:53:10;;;;;;;2.88;1.90;;;;;;;;;;5051749;28;20106;-72
2022/09/19 12:55:38;;;;;;;8.40;2.92;;;;;;;;;;5033719;28;20599;-69
2022/09/19 12:58:09;;;;;;;4.10;1.95;;;;;;;;;;5040849;28;20084;-71
2022/09/19 13:00:42;;;;;;;3.78;2.30;;;;;;;;;;5046474;28;20064;-72
2022/09/19 13:03:13;;;;;;;4.45;2.42;;;;;;;;;;5052839;28;20035;-71
2022/09/19 13:05:45;;;;;;;7.57;2.67;;;;;;;;;;5067698;28;20153;-71
2022/09/19 13:08:15;;;;;;;3.15;2.20;;;;;;;;;;5064199;28;20025;-71
2022/09/19 13:10:54;;;;;;;5.93;2.15;;;;;;;;;;5070351;28;20017;-72
2022/09/19 13:13:47;;;;;;;3.35;1.70;;;;;;;;;;5067620;28;20036;-72
2022/09/19 13:16:14;;;;;;;4.50;1.40;;;;;;;;;;5068019;28;20029;-71
2022/09/19 13:24:40;;;;;;;2.65;1.65;;;;;;;;;;5043638;28;20062;-72
2022/09/19 13:27:05;;;;;;;3.10;1.50;;;;;;;;;;5039577;28;20029;-73
2022/09/19 13:29:31;;;;;;;4.53;1.25;;;;;;;;;;5045026;28;20075;-71
2022/09/19 13:31:56;;;;;;;6.50;1.77;;;;;;;;;;5045815;28;20494;-72
2022/09/19 13:34:34;;;;;;;2.95;1.70;;;;;;;;;;5044508;28;20060;-72
2022/09/19 13:37:04;;;;;;;3.63;1.33;;;;;;;;;;5044571;28;20021;-73
2022/09/19 13:39:52;;;;;;;2.22;1.10;;;;;;;;;;5028963;28;20116;-70
2022/09/19 13:42:24;;;;;;;4.15;1.13;;;;;;;;;;5043471;28;20090;-70
2022/09/19 13:44:57;;;;;;;3.08;1.27;;;;;;;;;;5047118;28;20141;-72
2022/09/19 13:47:24;;;;;;;2.75;1.90;;;;;;;;;;5047880;28;20021;-71
2022/09/19 13:49:55;;;;;;;2.78;2.00;;;;;;;;;;5048981;28;20030;-71
2022/09/19 13:52:29;;;;;;;3.58;1.80;;;;;;;;;;5048265;28;20029;-70
2022/09/19 13:55:06;;;;;;;5.43;1.55;;;;;;;;;;5046962;28;20044;-71
2022/09/19 13:57:31;;;;;;;3.95;1.58;;;;;;;;;;5047494;28;20025;-71
2022/09/19 14:00:03;;;;;;;2.33;1.70;;;;;;;;;;5030080;28;20040;-69
2022/09/19 14:02:32;;;;;;;3.42;1.77;;;;;;;;;;5045435;28;20530;-71
2022/09/19 14:04:58;;;;;;;4.65;2.30;;;;;;;;;;5048723;28;20498;-68
2022/09/19 14:07:24;;;;;;;4.20;2.45;;;;;;;;;;5047633;28;20025;-67
2022/09/19 14:09:54;;;;;;;5.00;2.45;;;;;;;;;;5048895;28;20094;-68
2022/09/19 14:12:38;;;;;;;7.00;3.40;;;;;;;;;;5027398;28;20372;-69
2022/09/19 14:15:24;;;;;;;7.90;4.60;;;;;;;;;;5047888;28;20033;-67
2022/09/19 14:22:54;;;;;;;3.65;2.25;;;;;;;;;;5048830;27;1314258;-69
2022/09/19 14:25:24;;;;;;;4.03;3.08;;;;;;;;;;5105553;27;20107;-68
2022/09/19 14:27:59;;;;;;;2.75;1.85;;;;;;;;;;5112622;28;20032;-69
2022/09/19 14:30:43;;;;;;;5.55;2.25;;;;;;;;;;5114188;28;20024;-70
2022/09/19 14:33:11;;;;;;;9.20;3.65;;;;;;;;;;5118826;27;20032;-70
2022/09/19 14:35:44;;;;;;;8.70;3.80;;;;;;;;;;5113470;28;20031;-68
2022/09/19 14:38:37;;;;;;;3.53;2.28;;;;;;;;;;5114619;27;20034;-70
2022/09/19 14:41:09;;;;;;;3.97;2.20;;;;;;;;;;5113152;28;20028;-68
2022/09/19 14:43:37;;;;;;;3.47;2.10;;;;;;;;;;5111681;28;20046;-69
2022/09/19 14:46:03;;;;;;;3.40;2.20;;;;;;;;;;5115446;28;20043;-70
2022/09/19 14:48:34;;;;;;;3.33;1.73;;;;;;;;;;5111786;28;20381;-70
2022/09/19 14:51:04;;;;;;;2.95;1.83;;;;;;;;;;5114749;27;20027;-69
2022/09/19 14:53:31;;;;;;;5.07;2.30;;;;;;;;;;5117173;28;20027;-69
2022/09/19 14:55:59;;;;;;;4.57;2.95;;;;;;;;;;5112087;28;20076;-68
2022/09/19 14:58:32;;;;;;;4.97;2.03;;;;;;;;;;5113084;28;20028;-68
2022/09/19 15:01:07;;;;;;;2.20;1.92;;;;;;;;;;5112280;28;20024;-70
2022/09/19 15:03:48;;;;;;;4.55;2.22;;;;;;;;;;5113786;28;20054;-68
2022/09/19 15:06:32;;;;;;;4.72;1.60;;;;;;;;;;5117839;28;20439;-67
2022/09/19 15:08:58;;;;;;;2.53;1.70;;;;;;;12.33;nan;100490.66;5110246;28;20036;-67
2022/09/19 15:11:25;;;;;;;2.88;1.60;;;;;;;;;;5115662;28;20439;-67
2022/09/19 15:13:51;;;;;;;3.58;1.90;;;;;;;;;;5115497;28;20046;-68
2022/09/19 15:16:16;;;;;;;3.90;2.00;;;;;;;;;;5113948;28;20676;-69
2022/09/19 15:18:43;;;;;;;4.82;2.50;;;;;;;;;;5112908;28;20366;-68
2022/09/19 15:21:12;;;;;;;5.13;2.88;;;;;;;;;;5116284;27;20031;-68
2022/09/19 15:23:37;;;;;;;;;;;;;;;;;;5135555;27;20417;-69